TAF Text Data
IDs:
Format:
Raw Decoded Include METAR

Data at: 2048 UTC 31 Jan 2023

METAR for:KORD (Chicago/O'Hare Intl, IL, US)
Text:KORD 311951Z 24007KT 10SM FEW130 FEW250 M11/M21 A3035 RMK AO2 SLP294 T11111211
Temperature:-11.1°C ( 12°F)
Dewpoint:-21.1°C ( -6°F) [RH = 43%]
Pressure (altimeter):30.35 inches Hg (1027.9 mb) [Sea level pressure: 1029.4 mb]
Winds:from the WSW (240 degrees) at 8 MPH (7 knots; 3.6 m/s)
Visibility:10 or more sm (16+ km)
Ceiling:at least 12,000 feet AGL
Clouds: few clouds at 13000 feet AGL, few clouds at 25000 feet AGL

TAF for:KORD (Chicago/O'Hare Intl, IL, US) issued at 1720 UTC 31 Jan 2023
Text:KORD 311720Z 3118/0124 26007KT P6SM SCT110
Forecast period:1800 UTC 31 January 2023 to 1700 UTC 01 February 2023
Forecast type:FROM: standard forecast or significant change
Winds:from the W (260 degrees) at 8 MPH (7 knots; 3.6 m/s)
Visibility:6 or more sm (10+ km)
Ceiling:at least 12,000 feet AGL
Clouds: scattered clouds at 11000 feet AGL
Text:FM011700 22011G18KT P6SM SKC
Forecast period:1700 UTC 01 February 2023 to 0000 UTC 02 February 2023
Forecast type:FROM: standard forecast or significant change
Winds:from the SW (220 degrees) at 13 MPH (11 knots; 5.7 m/s) gusting to 21 MPH (18 knots; 9.3 m/s)
Visibility:6 or more sm (10+ km)
Ceiling:at least 12,000 feet AGL
Clouds:clear skies

METAR for:KDPA (Dupage Cnty Arpt, IL, US)
Text:KDPA 311952Z 26010KT 10SM UP CLR M13/M21 A3036 RMK AO2 UPE30B47 SLP300 P0000 T11331211
Temperature:-13.3°C ( 8°F)
Dewpoint:-21.1°C ( -6°F) [RH = 52%]
Pressure (altimeter):30.36 inches Hg (1028.2 mb) [Sea level pressure: 1030.0 mb]
Winds:from the W (260 degrees) at 12 MPH (10 knots; 5.1 m/s)
Visibility:10 or more sm (16+ km)
Ceiling:at least 12,000 feet AGL
Clouds:sky clear below 12,000 feet AGL
Weather:UP (unknown precipitation)

TAF for:KDPA (Dupage Cnty Arpt, IL, US) issued at 1720 UTC 31 Jan 2023
Text:KDPA 311720Z 3118/0118 26005KT P6SM SCT110
Forecast period:1800 UTC 31 January 2023 to 1700 UTC 01 February 2023
Forecast type:FROM: standard forecast or significant change
Winds:from the W (260 degrees) at 6 MPH (5 knots; 2.6 m/s)
Visibility:6 or more sm (10+ km)
Ceiling:at least 12,000 feet AGL
Clouds: scattered clouds at 11000 feet AGL
Text:FM011700 22011G18KT P6SM SKC
Forecast period:1700 to 1800 UTC 01 February 2023
Forecast type:FROM: standard forecast or significant change
Winds:from the SW (220 degrees) at 13 MPH (11 knots; 5.7 m/s) gusting to 21 MPH (18 knots; 9.3 m/s)
Visibility:6 or more sm (10+ km)
Ceiling:at least 12,000 feet AGL
Clouds:clear skies

METAR for:KDKB (DeKalb/Taylor Muni, IL, US)
Text:No data found

TAF for:KDKB (DeKalb/Taylor Muni, IL, US)
Text:No data found

METAR for:KRFD (Rockford Intl, IL, US)
Text:KRFD 311954Z 28006KT 10SM FEW110 M13/M23 A3038 RMK AO2 SLP305 T11331228
Temperature:-13.3°C ( 8°F)
Dewpoint:-22.8°C ( -9°F) [RH = 45%]
Pressure (altimeter):30.38 inches Hg (1028.9 mb) [Sea level pressure: 1030.5 mb]
Winds:from the W (280 degrees) at 7 MPH (6 knots; 3.1 m/s)
Visibility:10 or more sm (16+ km)
Ceiling:at least 12,000 feet AGL
Clouds: few clouds at 11000 feet AGL

TAF for:KRFD (Rockford Intl, IL, US) issued at 1720 UTC 31 Jan 2023
Text:KRFD 311720Z 3118/0118 24005KT P6SM FEW110
Forecast period:1800 UTC 31 January 2023 to 1700 UTC 01 February 2023
Forecast type:FROM: standard forecast or significant change
Winds:from the WSW (240 degrees) at 6 MPH (5 knots; 2.6 m/s)
Visibility:6 or more sm (10+ km)
Ceiling:at least 12,000 feet AGL
Clouds: few clouds at 11000 feet AGL
Text:FM011700 21012G18KT P6SM SKC
Forecast period:1700 to 1800 UTC 01 February 2023
Forecast type:FROM: standard forecast or significant change
Winds:from the SSW (210 degrees) at 14 MPH (12 knots; 6.2 m/s) gusting to 21 MPH (18 knots; 9.3 m/s)
Visibility:6 or more sm (10+ km)
Ceiling:at least 12,000 feet AGL
Clouds:clear skies

METAR for:
Text:No data found

TAF for:
Text:No data found